Time;durP1;ratioP1;P1;durP2;ratioP2;P2;SDS_P1;SDS_P2;PMS_P1;PMS_P2;Temp;Humidity;BMP_temperature;BMP_pressure;BME280_temperature;BME280_humidity;BME280_pressure;Samples;Min_cycle;Max_cycle;Signal;HPM_P1;HPM_P2
2023/04/12 00:04:21;;;;;;;6.77;1.70;;;;;8.00;99913.00;;;;9864657;29;20204;-80
2023/04/12 00:09:24;;;;;;;2.33;1.30;;;;;8.00;99904.00;;;;9901396;29;20439;-79
2023/04/12 00:14:26;;;;;;;3.27;1.30;;;;;8.00;99888.00;;;;9901295;29;20263;-80
2023/04/12 00:19:29;;;;;;;3.57;1.40;;;;;8.10;99876.00;;;;9877900;29;20227;-80
2023/04/12 00:24:31;;;;;;;2.30;1.00;;;;;8.10;99876.00;;;;9878575;29;20211;-80
2023/04/12 00:29:33;;;;;;;2.97;1.13;;;;;8.10;99861.00;;;;9883295;29;20231;-80
2023/04/12 00:34:35;;;;;;;4.57;1.27;;;;;8.10;99840.00;;;;9854572;29;20207;-80
2023/04/12 00:39:37;;;;;;;2.80;1.03;;;;;8.10;99812.00;;;;9880925;29;20491;-81
2023/04/12 00:44:39;;;;;;;3.37;1.30;;;;;8.00;99799.00;;;;9863177;29;20212;-79
2023/04/12 00:49:42;;;;;;;2.40;1.10;;;;;8.00;99791.00;;;;9859143;29;20889;-81
2023/04/12 00:54:44;;;;;;;1.50;0.80;;;;;8.00;99764.00;;;;9870584;29;20295;-81
2023/04/12 00:59:47;;;;;;;3.40;1.17;;;;;7.90;99746.00;;;;9884096;29;20210;-81
2023/04/12 01:04:52;;;;;;;2.43;1.10;;;;;7.90;99733.00;;;;9885568;29;20637;-80
2023/04/12 01:10:08;;;;;;;2.90;1.03;;;;;7.90;99738.00;;;;9866753;29;20318;-80
2023/04/12 01:15:12;;;;;;;2.50;1.20;;;;;7.90;99713.00;;;;9853955;29;20215;-80
2023/04/12 01:20:22;;;;;;;3.03;1.40;;;;;7.80;99697.00;;;;9868769;29;20261;-80
2023/04/12 01:25:39;;;;;;;1.90;1.17;;;;;7.80;99667.00;;;;9902168;29;20202;-79
2023/04/12 01:30:42;;;;;;;1.57;1.20;;;;;7.80;99666.00;;;;9892731;29;20211;-79
2023/04/12 01:35:45;;;;;;;1.93;0.83;;;;;7.80;99640.00;;;;9888955;29;20380;-79
2023/04/12 01:40:47;;;;;;;5.30;1.40;;;;;7.90;99630.00;;;;9858388;29;20654;-80
2023/04/12 01:45:49;;;;;;;1.93;0.93;;;;;7.90;99618.00;;;;9880951;29;20382;-79
2023/04/12 01:51:05;;;;;;;4.90;1.40;;;;;7.90;99606.00;;;;9880832;29;20262;-81
2023/04/12 01:56:08;;;;;;;1.77;1.07;;;;;7.90;99581.00;;;;9853037;29;20461;-80
2023/04/12 02:01:16;;;;;;;1.57;1.00;;;;;8.00;99581.00;;;;9867713;29;20303;-80
2023/04/12 02:06:22;;;;;;;4.43;1.10;;;;;8.00;99574.00;;;;9849889;29;20252;-80
2023/04/12 02:11:26;;;;;;;2.00;1.00;;;;;8.10;99546.00;;;;9902842;29;20233;-80
2023/04/12 02:16:28;;;;;;;4.10;1.10;;;;;8.10;99532.00;;;;9850766;29;20205;-81
2023/04/12 02:21:40;;;;;;;4.33;1.43;;;;;8.20;99525.00;;;;9848054;29;20265;-80
2023/04/12 02:26:42;;;;;;;2.00;0.90;;;;;8.20;99518.00;;;;9863818;29;20227;-79
2023/04/12 02:31:44;;;;;;;2.23;1.07;;;;;8.20;99510.00;;;;9848622;29;20219;-81
2023/04/12 02:36:47;;;;;;;1.67;0.90;;;;;8.10;99502.00;;;;9862232;29;20265;-79
2023/04/12 02:41:49;;;;;;;2.77;1.00;;;;;8.10;99496.00;;;;9878244;29;20436;-79
2023/04/12 02:46:52;;;;;;;2.23;0.87;;;;;8.10;99484.00;;;;9854628;29;20227;-80
2023/04/12 02:51:54;;;;;;;3.63;1.07;;;;;8.10;99475.00;;;;9878056;29;20208;-80
2023/04/12 02:57:03;;;;;;;2.20;1.03;;;;;8.10;99459.00;;;;9878380;29;20472;-79
2023/04/12 03:02:16;;;;;;;2.93;0.90;;;;;8.10;99444.00;;;;9862841;29;20312;-79
2023/04/12 03:07:20;;;;;;;5.47;1.20;;;;;8.10;99436.00;;;;9881846;29;20223;-79
2023/04/12 03:12:27;;;;;;;1.30;1.07;;;;;8.20;99427.00;;;;9898977;29;20668;-79
2023/04/12 03:17:48;;;;;;;2.80;1.20;;;;;8.20;99421.00;;;;9844280;29;20219;-79
2023/04/12 03:22:53;;;;;;;2.47;1.47;;;;;8.20;99427.00;;;;9847711;29;20211;-78
2023/04/12 03:27:55;;;;;;;1.87;1.67;;;;;8.20;99408.00;;;;9856186;29;20227;-80
2023/04/12 03:33:06;;;;;;;3.47;1.00;;;;;8.20;99406.00;;;;9882905;29;20218;-79
2023/04/12 03:38:09;;;;;;;4.57;1.60;;;;;8.30;99399.00;;;;9898113;29;20218;-79
2023/04/12 03:43:12;;;;;;;1.43;1.03;;;;;8.30;99386.00;;;;9893891;29;20206;-79
2023/04/12 03:48:15;;;;;;;2.80;1.30;;;;;8.30;99375.00;;;;9823317;29;20235;-80
2023/04/12 03:53:17;;;;;;;3.43;1.40;;;;;8.30;99368.00;;;;9875199;29;20578;-80
2023/04/12 03:58:22;;;;;;;1.87;1.20;;;;;8.30;99356.00;;;;9846569;29;20537;-78
2023/04/12 04:03:25;;;;;;;2.60;1.10;;;;;8.30;99339.00;;;;9860269;29;20208;-78
2023/04/12 04:08:41;;;;;;;1.63;1.10;;;;;8.30;99354.00;;;;9897382;29;20226;-78
2023/04/12 04:13:45;;;;;;;1.67;0.70;;;;;8.30;99351.00;;;;9877475;29;20294;-79
2023/04/12 04:18:52;;;;;;;0.90;0.70;;;;;8.30;99335.00;;;;9852531;29;20200;-79
2023/04/12 04:24:00;;;;;;;2.27;0.70;;;;;8.30;99338.00;;;;9866013;29;20215;-78
2023/04/12 04:29:05;;;;;;;0.97;0.87;;;;;8.30;99333.00;;;;9864327;29;20310;-79
2023/04/12 04:34:12;;;;;;;0.80;0.63;;;;;8.40;99326.00;;;;9844332;30;20204;-79
2023/04/12 04:39:18;;;;;;;2.10;0.90;;;;;8.30;99317.00;;;;9829667;30;20295;-78
2023/04/12 04:44:21;;;;;;;1.73;0.90;;;;;8.40;99314.00;;;;9864999;29;20237;-79
2023/04/12 04:49:28;;;;;;;2.37;1.03;;;;;8.40;99310.00;;;;9879003;29;20319;-77
2023/04/12 04:54:36;;;;;;;1.00;0.80;;;;;8.40;99300.00;;;;9860554;29;20575;-78
2023/04/12 04:59:40;;;;;;;1.67;0.70;;;;;8.40;99306.00;;;;9881432;29;20729;-77
2023/04/12 05:04:51;;;;;;;0.80;0.67;;;;;8.40;99304.00;;;;9815211;29;20289;-78
2023/04/12 05:09:56;;;;;;;1.07;0.67;;;;;8.40;99304.00;;;;9898506;29;20231;-78
2023/04/12 05:14:58;;;;;;;0.70;0.63;;;;;8.50;99314.00;;;;9855744;29;20204;-77
2023/04/12 05:20:13;;;;;;;3.03;0.97;;;;;8.50;99313.00;;;;9846832;29;20220;-77
2023/04/12 05:25:16;;;;;;;2.83;1.20;;;;;8.50;99334.00;;;;9839751;29;20215;-77
2023/04/12 05:30:26;;;;;;;1.23;1.10;;;;;8.60;99320.00;;;;9850140;29;20220;-77
2023/04/12 05:35:30;;;;;;;3.63;1.17;;;;;8.70;99317.00;;;;9826392;29;20727;-76
2023/04/12 05:40:35;;;;;;;3.53;1.30;;;;;8.70;99315.00;;;;9850426;29;20215;-77
2023/04/12 05:45:40;;;;;;;4.97;1.23;;;;;8.70;99327.00;;;;9819584;29;21119;-77
2023/04/12 05:50:50;;;;;;;6.43;1.30;;;;;8.70;99306.00;;;;9848931;29;20439;-77
2023/04/12 05:55:53;;;;;;;7.13;1.40;;;;;8.70;99308.00;;;;9822427;29;20231;-78
2023/04/12 06:00:56;;;;;;;6.33;1.47;;;;;8.90;99307.00;;;;9847213;29;20672;-78
2023/04/12 06:05:58;;;;;;;6.30;1.70;;;;;8.90;99314.00;;;;9862722;29;20711;-78
2023/04/12 06:11:01;;;;;;;6.47;2.23;;;;;8.90;99321.00;;;;9848472;29;20218;-77
2023/04/12 06:16:03;;;;;;;10.37;1.93;;;;;8.90;99312.00;;;;9871715;29;20671;-78
2023/04/12 06:21:06;;;;;;;7.00;2.63;;;;;8.90;99317.00;;;;9841353;29;20257;-76
2023/04/12 06:26:08;;;;;;;5.73;2.17;;;;;8.90;99304.00;;;;9843217;29;20210;-76
2023/04/12 06:31:10;;;;;;;6.53;2.20;;;;;8.90;99316.00;;;;9822258;30;20205;-77
2023/04/12 06:36:15;;;;;;;9.60;2.20;;;;;9.00;99328.00;;;;9902730;29;20395;-78
2023/04/12 06:41:18;;;;;;;11.13;2.33;;;;;9.20;99335.00;;;;9912300;29;20203;-77
2023/04/12 06:46:27;;;;;;;9.23;2.77;;;;;9.60;99310.00;;;;9877673;29;20238;-78
2023/04/12 06:51:29;;;;;;;6.90;1.90;;;;;9.60;99314.00;;;;9875458;29;20280;-78
2023/04/12 06:56:31;;;;;;;9.63;2.20;;;;;9.60;99322.00;;;;9860626;29;20231;-77
2023/04/12 07:01:34;;;;;;;6.43;2.40;;;;;9.40;99313.00;;;;9851407;29;20207;-78
2023/04/12 07:06:36;;;;;;;9.67;2.03;;;;;9.10;99309.00;;;;9860871;29;20215;-77
2023/04/12 07:11:38;;;;;;;6.93;1.97;;;;;9.20;99304.00;;;;9928100;29;20759;-79
2023/04/12 07:16:41;;;;;;;8.57;2.40;;;;;9.10;99298.00;;;;9879703;29;20272;-78
2023/04/12 07:21:43;;;;;;;8.87;2.07;;;;;9.30;99295.00;;;;9846099;29;20292;-78
2023/04/12 07:26:45;;;;;;;11.70;2.90;;;;;9.80;99308.00;;;;9847713;29;20238;-79
2023/04/12 07:31:47;;;;;;;9.80;3.13;;;;;9.90;99319.00;;;;9860953;29;20215;-78
2023/04/12 07:36:49;;;;;;;7.70;2.57;;;;;10.20;99312.00;;;;9859277;29;20307;-79
2023/04/12 07:41:51;;;;;;;7.73;2.23;;;;;10.60;99309.00;;;;9873818;29;20471;-79
2023/04/12 07:46:53;;;;;;;11.97;2.67;;;;;10.80;99297.00;;;;9862117;29;20223;-78
2023/04/12 07:51:56;;;;;;;10.80;2.40;;;;;11.40;99289.00;;;;9828653;29;20210;-78
2023/04/12 07:57:02;;;;;;;12.53;2.90;;;;;11.70;99284.00;;;;9843289;29;20326;-79
2023/04/12 08:02:05;;;;;;;11.33;2.37;;;;;12.00;99289.00;;;;9872085;29;20284;-79
2023/04/12 08:07:08;;;;;;;6.47;2.07;;;;;11.70;99291.00;;;;9847679;29;20590;-79
2023/04/12 08:12:10;;;;;;;13.60;2.70;;;;;11.50;99294.00;;;;9852875;29;20724;-78
2023/04/12 08:17:12;;;;;;;8.13;2.37;;;;;11.70;99291.00;;;;9841738;30;20226;-78
2023/04/12 08:22:14;;;;;;;12.50;2.20;;;;;12.30;99277.00;;;;9858708;29;20872;-78
2023/04/12 08:27:17;;;;;;;14.27;2.73;;;;;13.10;99282.00;;;;9829060;29;20215;-79
2023/04/12 08:32:19;;;;;;;14.27;2.57;;;;;13.90;99275.00;;;;9836156;30;20540;-78
2023/04/12 08:37:21;;;;;;;19.17;3.17;;;;;14.40;99269.00;;;;9835360;30;20293;-78
2023/04/12 08:42:23;;;;;;;10.23;2.50;;;;;14.30;99271.00;;;;9872617;29;20273;-78
2023/04/12 08:47:26;;;;;;;9.73;2.50;;;;;14.30;99275.00;;;;9859264;29;20631;-78
2023/04/12 08:52:28;;;;;;;14.03;2.70;;;;;14.70;99269.00;;;;9843142;29;20750;-77
2023/04/12 08:57:33;;;;;;;9.13;2.63;;;;;14.30;99269.00;;;;9873638;29;20269;-79
2023/04/12 09:02:37;;;;;;;14.47;3.10;;;;;14.10;99272.00;;;;9831657;29;20231;-77
2023/04/12 09:07:40;;;;;;;14.90;2.87;;;;;14.50;99281.00;;;;9893544;29;20223;-77
2023/04/12 09:12:48;;;;;;;10.80;2.87;;;;;15.00;99280.00;;;;9890380;29;20211;-77
2023/04/12 09:18:05;;;;;;;13.57;3.47;;;;;14.70;99285.00;;;;9878304;29;20207;-78
2023/04/12 09:23:36;;;;;;;11.95;2.55;;;;;14.80;99272.00;;;;9835533;29;20343;-77
2023/04/12 09:28:43;;;;;;;9.80;2.47;;;;;14.60;99267.00;;;;9848634;29;20239;-77
2023/04/12 09:33:46;;;;;;;10.33;2.33;;;;;14.30;99279.00;;;;9865352;29;20231;-77
2023/04/12 09:39:07;;;;;;;7.17;2.43;;;;;13.90;99288.00;;;;9841742;30;20287;-77
2023/04/12 09:44:28;;;;;;;7.27;2.23;;;;;13.90;99307.00;;;;9824085;29;20207;-77
2023/04/12 09:49:40;;;;;;;8.50;2.30;;;;;14.10;99307.00;;;;9850060;29;20243;-78
2023/04/12 09:54:44;;;;;;;11.53;2.83;;;;;14.40;99297.00;;;;9841773;30;20681;-78
2023/04/12 09:59:49;;;;;;;15.70;2.87;;;;;14.40;99311.00;;;;9860077;29;20288;-78
2023/04/12 10:04:51;;;;;;;10.03;2.27;;;;;13.40;99309.00;;;;9848748;29;20313;-77
2023/04/12 10:09:58;;;;;;;14.47;3.03;;;;;12.20;99310.00;;;;9880961;29;20227;-78
2023/04/12 10:15:05;;;;;;;12.67;2.90;;;;;12.30;99300.00;;;;9847480;29;20243;-79
2023/04/12 10:20:08;;;;;;;11.17;3.23;;;;;13.20;99304.00;;;;9837018;30;20232;-78
2023/04/12 10:25:16;;;;;;;12.00;2.13;;;;;14.00;99289.00;;;;9810850;30;20215;-79
2023/04/12 10:30:27;;;;;;;5.10;1.80;;;;;14.50;99285.00;;;;9863273;29;20707;-79
2023/04/12 10:35:48;;;;;;;8.43;1.93;;;;;13.50;99295.00;;;;9832215;29;20633;-78
2023/04/12 10:41:06;;;;;;;7.37;1.60;;;;;13.40;99312.00;;;;9846522;29;20215;-78
2023/04/12 10:46:36;;;;;;;12.07;1.80;;;;;13.80;99300.00;;;;9846225;29;20730;-78
2023/04/12 10:51:39;;;;;;;10.10;2.30;;;;;15.40;99292.00;;;;9860838;29;20219;-77
2023/04/12 10:56:45;;;;;;;8.40;2.40;;;;;15.00;99292.00;;;;9846608;29;20200;-78
2023/04/12 11:02:11;;;;;;;8.73;1.83;;;;;14.80;99292.00;;;;9864347;29;20263;-78
2023/04/12 11:07:19;;;;;;;6.55;2.42;;;;;15.50;99271.00;;;;9893519;29;20220;-78
2023/04/12 11:12:35;;;;;;;9.38;2.72;;;;;16.60;99275.00;;;;9859918;29;20207;-78
2023/04/12 11:17:37;;;;;;;10.18;2.35;;;;;17.00;99275.00;;;;9832079;30;20254;-78
2023/04/12 11:22:39;;;;;;;7.63;2.15;;;;;17.90;99266.00;;;;9860208;29;20211;-78
2023/04/12 11:27:50;;;;;;;9.35;2.72;;;;;18.30;99270.00;;;;9861176;29;20223;-78
2023/04/12 11:32:52;;;;;;;9.85;2.33;;;;;17.30;99257.00;;;;9845271;29;20207;-79
2023/04/12 11:37:56;;;;;;;6.65;1.80;;;;;18.30;99257.00;;;;9875538;29;20357;-78
2023/04/12 11:42:59;;;;;;;8.75;2.17;;;;;18.70;99245.00;;;;9860045;29;20218;-78
2023/04/12 11:48:01;;;;;;;9.05;2.25;;;;;16.60;99281.00;;;;9831591;29;20273;-77
2023/04/12 11:53:13;;;;;;;5.10;1.83;;;;;13.50;99314.00;;;;9845178;29;20295;-78
2023/04/12 11:58:16;;;;;;;8.90;2.47;;;;;10.90;99334.00;;;;9886188;29;20223;-79
2023/04/12 12:03:19;;;;;;;8.00;2.50;;;;;9.80;99345.00;;;;9846267;29;20909;-78
2023/04/12 12:08:23;;;;;;;8.03;1.77;;;;;9.70;99368.00;;;;9859366;29;20319;-77
2023/04/12 12:13:25;;;;;;;3.83;0.70;;;;;9.30;99354.00;;;;9860315;29;20212;-77
2023/04/12 12:18:27;;;;;;;4.83;1.17;;;;;9.50;99346.00;;;;9873884;29;20214;-76
2023/04/12 12:23:31;;;;;;;4.37;1.47;;;;;10.40;99342.00;;;;9844835;29;20229;-77
2023/04/12 12:28:37;;;;;;;4.73;1.00;;;;;11.60;99334.00;;;;9833041;29;20227;-78
2023/04/12 12:33:39;;;;;;;3.97;1.17;;;;;12.70;99331.00;;;;9860173;29;20668;-78
2023/04/12 12:38:52;;;;;;;4.97;1.63;;;;;13.50;99330.00;;;;9850962;29;20311;-78
2023/04/12 12:43:54;;;;;;;8.67;1.87;;;;;14.30;99335.00;;;;9851633;29;20216;-77
2023/04/12 12:48:56;;;;;;;6.07;1.80;;;;;13.50;99333.00;;;;9864526;29;20918;-77
2023/04/12 12:53:58;;;;;;;5.23;1.47;;;;;13.50;99328.00;;;;9848102;29;20664;-77
2023/04/12 12:59:00;;;;;;;7.37;1.80;;;;;13.90;99317.00;;;;9865226;29;20766;-79
2023/04/12 13:04:02;;;;;;;3.93;2.07;;;;;13.90;99307.00;;;;9850921;29;20288;-78
2023/04/12 13:09:05;;;;;;;6.30;1.60;;;;;13.70;99297.00;;;;9871653;29;20315;-77
2023/04/12 13:14:07;;;;;;;6.50;1.67;;;;;13.90;99294.00;;;;9863035;29;20211;-78
2023/04/12 13:19:09;;;;;;;6.47;1.50;;;;;14.10;99276.00;;;;9863271;29;20232;-77
2023/04/12 13:24:11;;;;;;;3.07;1.17;;;;;15.70;99271.00;;;;9848005;29;20208;-77
2023/04/12 13:29:13;;;;;;;5.20;1.33;;;;;17.90;99270.00;;;;9894308;29;21049;-78
2023/04/12 13:34:16;;;;;;;4.75;1.58;;;;;15.00;99285.00;;;;9863126;29;20223;-77
2023/04/12 13:39:18;;;;;;;4.63;1.20;;;;;13.80;99283.00;;;;9848959;29;20720;-78
2023/04/12 13:44:20;;;;;;;3.57;1.03;;;;;13.00;99289.00;;;;9849415;29;20731;-78
2023/04/12 13:49:22;;;;;;;3.53;1.00;;;;;12.20;99298.00;;;;9864664;29;20351;-77
2023/04/12 13:54:24;;;;;;;2.17;0.93;;;;;11.40;99313.00;;;;9827347;30;20315;-77
2023/04/12 13:59:27;;;;;;;2.93;1.10;;;;;10.80;99326.00;;;;9856640;29;20228;-77
2023/04/12 14:04:30;;;;;;;1.33;0.70;;;;;10.30;99334.00;;;;9848191;29;20203;-76
2023/04/12 14:09:32;;;;;;;4.27;0.90;;;;;9.90;99325.00;;;;9839462;30;20239;-76
2023/04/12 14:14:34;;;;;;;1.67;0.67;;;;;10.10;99329.00;;;;9839824;29;20212;-77
2023/04/12 14:19:36;;;;;;;2.03;0.80;;;;;11.80;99327.00;;;;9849074;29;20608;-78
2023/04/12 14:24:38;;;;;;;1.90;0.93;;;;;11.40;99316.00;;;;9848123;29;20207;-77
2023/04/12 14:29:41;;;;;;;3.33;0.93;;;;;12.50;99274.00;;;;9859825;29;20320;-77
2023/04/12 14:34:43;;;;;;;1.37;0.87;;;;;21.30;99260.00;;;;9874852;29;20943;-77
2023/04/12 14:39:45;;;;;;;3.83;1.00;;;;;23.70;99251.00;;;;9877492;29;20210;-77
2023/04/12 14:44:48;;;;;;;2.50;1.10;;;;;23.90;99247.00;;;;9846715;29;20300;-77
2023/04/12 14:49:50;;;;;;;3.08;0.93;;;;;23.70;99247.00;;;;9861336;29;20223;-78
2023/04/12 14:54:52;;;;;;;2.58;1.05;;;;;22.00;99261.00;;;;9876149;29;20207;-79
2023/04/12 14:59:55;;;;;;;4.38;1.58;;;;;20.30;99255.00;;;;9860773;29;20418;-78
2023/04/12 15:04:58;;;;;;;2.03;0.85;;;;;19.70;99253.00;;;;9861164;29;20291;-78
2023/04/12 15:10:00;;;;;;;4.22;1.10;;;;;19.90;99248.00;;;;9875906;29;20219;-78
2023/04/12 15:15:03;;;;;;;5.30;1.20;;;;;17.10;99249.00;;;;9861709;29;20225;-78
2023/04/12 15:20:08;;;;;;;6.37;1.30;;;;;14.30;99265.00;;;;9842320;30;20211;-77
2023/04/12 15:25:10;;;;;;;1.57;1.00;;;;;13.40;99274.00;;;;9853513;29;20677;-78
2023/04/12 15:30:14;;;;;;;4.33;0.83;;;;;13.60;99262.00;;;;9855113;29;20727;-78
2023/04/12 15:35:16;;;;;;;6.27;1.23;;;;;13.90;99253.00;;;;9861226;29;20199;-77
2023/04/12 15:40:27;;;;;;;4.70;1.30;;;;;14.70;99253.00;;;;9874840;29;20771;-77
2023/04/12 15:45:30;;;;;;;5.53;1.40;;;;;14.10;99257.00;;;;9861641;29;20211;-77
2023/04/12 15:50:32;;;;;;;3.33;1.50;;;;;13.70;99262.00;;;;9860614;29;20569;-77
2023/04/12 15:55:34;;;;;;;6.80;1.30;;;;;14.00;99248.00;;;;9867889;29;20215;-76
2023/04/12 16:00:37;;;;;;;5.60;1.20;;;;;13.90;99239.00;;;;9861129;29;20216;-77
2023/04/12 16:05:39;;;;;;;3.83;0.80;;;;;13.20;99265.00;;;;9852972;29;20238;-78
2023/04/12 16:10:43;;;;;;;2.23;0.70;;;;;13.00;99254.00;;;;9868940;29;20246;-79
2023/04/12 16:15:45;;;;;;;2.37;0.60;;;;;12.30;99247.00;;;;9868066;29;20227;-79
2023/04/12 16:20:47;;;;;;;3.43;1.00;;;;;11.80;99259.00;;;;9862771;29;20203;-78
2023/04/12 16:25:49;;;;;;;2.80;1.00;;;;;11.50;99262.00;;;;9834123;29;20280;-79
2023/04/12 16:30:52;;;;;;;3.40;0.80;;;;;11.20;99262.00;;;;9859597;29;20239;-79
2023/04/12 16:35:54;;;;;;;3.03;0.93;;;;;11.10;99272.00;;;;9825380;29;20204;-78
2023/04/12 16:40:56;;;;;;;6.23;1.10;;;;;11.10;99264.00;;;;9875601;29;20223;-79
2023/04/12 16:46:05;;;;;;;4.17;1.17;;;;;11.00;99267.00;;;;9818909;29;20209;-78
2023/04/12 16:51:07;;;;;;;1.87;0.63;;;;;10.90;99267.00;;;;9819367;29;20751;-79
2023/04/12 16:56:10;;;;;;;2.20;0.83;;;;;11.20;99275.00;;;;9834277;29;20210;-78
2023/04/12 17:01:14;;;;;;;2.10;0.60;;;;;11.60;99252.00;;;;9856508;29;20294;-78
2023/04/12 17:06:18;;;;;;;1.30;1.13;;;;;12.00;99244.00;;;;9867250;29;20208;-79
2023/04/12 17:11:20;;;;;;;3.57;0.60;;;;;11.40;99246.00;;;;9867329;29;20280;-78
2023/04/12 17:16:23;;;;;;;4.83;1.20;;;;;11.20;99253.00;;;;9859341;29;20908;-79
2023/04/12 17:21:25;;;;;;;0.47;0.40;;;;;11.30;99265.00;;;;9866189;29;20208;-78
2023/04/12 17:26:27;;;;;;;3.30;0.63;;;;;11.90;99239.00;;;;9850644;29;20341;-78
2023/04/12 17:31:33;;;;;;;1.27;0.40;;;;;11.70;99209.00;;;;9859551;29;20237;-80
2023/04/12 17:36:37;;;;;;;1.17;0.40;;;;;11.10;99211.00;;;;9842772;29;20802;-79
2023/04/12 17:41:39;;;;;;;2.13;0.50;;;;;10.50;99214.00;;;;9864269;29;20195;-79
2023/04/12 17:46:42;;;;;;;0.83;0.37;;;;;10.00;99207.00;;;;9844812;29;20235;-79
2023/04/12 17:51:44;;;;;;;1.27;0.40;;;;;9.60;99204.00;;;;9878262;29;20257;-78
2023/04/12 17:56:49;;;;;;;0.50;0.47;;;;;9.20;99203.00;;;;9880683;29;20876;-78
2023/04/12 18:01:52;;;;;;;1.10;0.53;;;;;8.90;99187.00;;;;9821382;29;20231;-78
2023/04/12 18:06:55;;;;;;;1.10;0.50;;;;;8.70;99184.00;;;;9873589;29;20206;-78
2023/04/12 18:11:57;;;;;;;0.73;0.60;;;;;8.50;99186.00;;;;9847672;29;20226;-79
2023/04/12 18:16:59;;;;;;;2.10;0.60;;;;;8.30;99194.00;;;;9839550;29;20237;-79
2023/04/12 18:22:01;;;;;;;2.90;0.90;;;;;8.00;99195.00;;;;9811706;29;20212;-78
2023/04/12 18:27:05;;;;;;;2.90;0.80;;;;;7.70;99200.00;;;;9822279;29;20212;-79
2023/04/12 18:32:07;;;;;;;3.73;0.80;;;;;7.50;99190.00;;;;9840430;29;20231;-78
2023/04/12 18:37:09;;;;;;;2.50;0.90;;;;;7.30;99196.00;;;;9859415;29;20207;-79
2023/04/12 18:42:11;;;;;;;3.73;1.03;;;;;7.10;99193.00;;;;9860221;29;20216;-81
2023/04/12 18:47:13;;;;;;;5.30;1.33;;;;;7.00;99191.00;;;;9828294;30;20203;-79
2023/04/12 18:52:21;;;;;;;2.47;1.23;;;;;6.90;99174.00;;;;9876461;29;20231;-78
2023/04/12 18:57:23;;;;;;;4.93;1.70;;;;;6.80;99174.00;;;;9860536;29;20469;-78
2023/04/12 19:02:27;;;;;;;2.70;1.33;;;;;6.70;99150.00;;;;9861036;29;20294;-79
2023/04/12 19:07:29;;;;;;;6.03;1.60;;;;;6.60;99177.00;;;;9835847;29;20232;-79
2023/04/12 19:12:32;;;;;;;3.70;1.83;;;;;6.50;99178.00;;;;9846283;29;20278;-79
2023/04/12 19:17:37;;;;;;;4.80;1.70;;;;;6.50;99170.00;;;;9854059;29;20460;-78
2023/04/12 19:22:40;;;;;;;3.53;1.60;;;;;6.50;99172.00;;;;9861929;29;20872;-78
2023/04/12 19:27:42;;;;;;;6.83;1.80;;;;;6.50;99162.00;;;;9861193;29;20208;-79
2023/04/12 19:32:44;;;;;;;2.57;1.27;;;;;6.50;99153.00;;;;9859534;29;20251;-78
2023/04/12 19:37:46;;;;;;;3.17;1.50;;;;;6.50;99154.00;;;;9863421;29;20304;-80
2023/04/12 19:42:48;;;;;;;4.50;1.80;;;;;6.50;99147.00;;;;9832533;29;20546;-81
2023/04/12 19:47:50;;;;;;;3.53;1.30;;;;;6.60;99140.00;;;;9831659;29;20204;-79
2023/04/12 19:52:53;;;;;;;4.43;2.40;;;;;6.70;99136.00;;;;9847192;29;20215;-80
2023/04/12 19:57:57;;;;;;;4.17;1.30;;;;;6.80;99138.00;;;;9826395;29;20743;-79
2023/04/12 20:03:00;;;;;;;2.60;1.37;;;;;6.90;99130.00;;;;9826900;30;20228;-79
2023/04/12 20:08:02;;;;;;;3.27;1.30;;;;;7.10;99116.00;;;;9897489;29;20192;-78
2023/04/12 20:13:08;;;;;;;3.17;1.00;;;;;7.20;99102.00;;;;9857765;29;20231;-79
2023/04/12 20:18:12;;;;;;;2.67;0.70;;;;;7.30;99089.00;;;;9836631;30;20219;-79
2023/04/12 20:23:14;;;;;;;3.70;1.00;;;;;7.50;99089.00;;;;9876048;29;20231;-79
2023/04/12 20:28:16;;;;;;;3.80;0.87;;;;;7.70;99089.00;;;;9871913;29;20509;-80
2023/04/12 20:33:19;;;;;;;3.33;0.80;;;;;7.80;99075.00;;;;9858977;29;20242;-78
2023/04/12 20:38:21;;;;;;;1.70;0.73;;;;;7.80;99068.00;;;;9873543;29;20215;-78
2023/04/12 20:43:23;;;;;;;1.13;0.50;;;;;7.90;99059.00;;;;9858873;29;20211;-78
2023/04/12 20:48:25;;;;;;;0.47;0.43;;;;;8.00;99060.00;;;;9871499;29;20230;-79
2023/04/12 20:53:28;;;;;;;1.83;0.60;;;;;8.20;99047.00;;;;9802222;29;20632;-79
2023/04/12 20:58:33;;;;;;;2.80;0.57;;;;;8.20;99092.00;;;;9816963;29;20243;-79
2023/04/12 21:03:36;;;;;;;1.43;0.80;;;;;8.00;99048.00;;;;9832872;29;20957;-80
2023/04/12 21:08:41;;;;;;;1.90;0.60;;;;;8.00;99034.00;;;;9826125;29;20369;-79
2023/04/12 21:13:43;;;;;;;2.03;0.90;;;;;8.00;99036.00;;;;9878404;29;20255;-79
2023/04/12 21:18:45;;;;;;;0.70;0.50;;;;;8.00;99037.00;;;;9879532;29;20506;-79
2023/04/12 21:23:47;;;;;;;2.73;0.70;;;;;7.90;99043.00;;;;9864507;29;20204;-78
2023/04/12 21:28:49;;;;;;;1.33;0.60;;;;;7.60;99053.00;;;;9863854;29;20222;-78
2023/04/12 21:33:52;;;;;;;4.13;0.70;;;;;7.20;99026.00;;;;9894597;29;20662;-78
2023/04/12 21:38:55;;;;;;;2.00;0.60;;;;;7.00;99029.00;;;;9878960;29;20287;-78
2023/04/12 21:43:57;;;;;;;1.20;0.53;;;;;6.90;99026.00;;;;9878718;29;20231;-79
2023/04/12 21:49:00;;;;;;;1.57;0.70;;;;;6.70;99013.00;;;;9866075;29;20223;-77
2023/04/12 21:54:02;;;;;;;1.60;0.67;;;;;6.70;99008.00;;;;9878175;29;20224;-78
2023/04/12 21:59:04;;;;;;;1.07;0.60;;;;;6.80;98998.00;;;;9850675;29;20453;-77
2023/04/12 22:04:08;;;;;;;3.33;0.63;;;;;6.90;99006.00;;;;9864504;29;20561;-78
2023/04/12 22:09:10;;;;;;;2.43;0.70;;;;;6.90;99011.00;;;;9883480;29;20226;-78
2023/04/12 22:14:12;;;;;;;4.27;0.90;;;;;6.70;99004.00;;;;9908934;29;20213;-78
2023/04/12 22:19:15;;;;;;;2.03;0.80;;;;;6.40;99011.00;;;;9864503;29;20219;-78
2023/04/12 22:24:17;;;;;;;0.80;0.50;;;;;6.30;99011.00;;;;9852971;29;20199;-78
2023/04/12 22:29:21;;;;;;;3.00;1.10;;;;;6.10;99007.00;;;;9858148;29;20227;-78
2023/04/12 22:34:26;;;;;;;2.93;0.80;;;;;6.10;99015.00;;;;9864968;29;20218;-77
2023/04/12 22:39:28;;;;;;;2.20;0.80;;;;;6.00;99009.00;;;;9864571;29;20655;-76
2023/04/12 22:44:36;;;;;;;3.07;0.53;;;;;6.00;99002.00;;;;9878573;29;20219;-78
2023/04/12 22:49:49;;;;;;;2.63;0.80;;;;;6.00;99009.00;;;;9894082;29;20234;-77
2023/04/12 22:54:51;;;;;;;1.27;0.50;;;;;6.00;99001.00;;;;9847923;29;20211;-77
2023/04/12 22:59:53;;;;;;;3.73;0.77;;;;;6.10;98988.00;;;;9878374;29;20312;-79
2023/04/12 23:04:55;;;;;;;1.40;0.60;;;;;6.20;98984.00;;;;9878355;29;20277;-79
2023/04/12 23:09:57;;;;;;;4.43;0.80;;;;;6.20;98993.00;;;;9886272;29;20778;-79
2023/04/12 23:14:59;;;;;;;3.27;0.63;;;;;6.30;99002.00;;;;9850863;29;20208;-79
2023/04/12 23:20:04;;;;;;;2.20;0.60;;;;;6.30;98989.00;;;;9872102;29;20306;-78
2023/04/12 23:25:07;;;;;;;3.20;1.10;;;;;6.40;98980.00;;;;9875308;29;20214;-78
2023/04/12 23:30:10;;;;;;;4.30;1.03;;;;;6.40;98986.00;;;;9846521;29;20238;-78
2023/04/12 23:35:13;;;;;;;1.40;0.70;;;;;6.40;98988.00;;;;9859464;29;20203;-79
2023/04/12 23:40:15;;;;;;;2.90;0.70;;;;;6.40;98969.00;;;;9860593;29;20211;-78
2023/04/12 23:45:17;;;;;;;2.37;0.87;;;;;6.40;98985.00;;;;9847975;29;20206;-78
2023/04/12 23:50:19;;;;;;;2.50;0.93;;;;;6.50;98997.00;;;;9837751;29;20315;-78
2023/04/12 23:55:22;;;;;;;1.20;0.80;;;;;6.50;99010.00;;;;9869360;29;20204;-77
